リーブルヴィル の空港の天気 - METARとTAF

リーブルヴィル国際空港 ( FOOL / LBV ) - ガボン リーブルヴィル
飛行場実況気象(Metar)
観測時間04/25 15:30 WAT (04/25 14:30 UTC)
風向・風速北東 2m/s
視程10km以上
天気現象
少しの雲 雲底高度 300m
少しの雲 雲底高度 610m
気温28℃
湿度70%
気圧1010hPa
METARFOOL 251430Z 05004KT 010V100 9999 FEW010 FEW020CB 28/22 Q1010 NOSIG
過去の天気等 Google飛行場航空写真 Wunderground天気予報

過去48時間のMETAR

飛行場予報(TAF)
発表時間: 4/25 12:00 WAT (4/25 11:00 UTC)
予報対象時間: 25日13時 WAT ~ 26日19時 WAT
風向・風速南南西 4m/s
視程10km以上
全天の4割程度の雲 雲底高度 400m
少しの積乱雲 雲底高度 610m
25日18時 WAT ~ 25日22時 WAT に一時的に
天気現象
25日23時 WAT ~ 26日6時 WAT に 確率 30% で一時的に
視程3,000m
天気現象雷雨
全天の8割程度の雲 雲底高度 180m
少しの積乱雲 雲底高度 490m
全天を覆う雲 雲底高度 700m
25日18時 WAT ~ 25日22時 WAT に一時的に
天気現象
TAF FOOL 251100Z 2512/2618 20007KT 9999 SCT013 FEW020CB
TEMPO 2517/2521 TS
PROB30 TEMPO 2522/2605 3000 TSRA BKN006 FEW016CB OVC023
TEMPO 2517/2521 TS